createdAt,value
2023-02-25T00:00:49.846Z,1.11
2023-02-25T00:02:03.852Z,1.13
2023-02-25T00:03:10.627Z,1.13
2023-02-25T00:04:13.860Z,1.13
2023-02-25T00:05:57.760Z,1.14
2023-02-25T00:07:02.156Z,1.15
2023-02-25T00:08:07.190Z,1.14
2023-02-25T00:09:11.514Z,1.12
2023-02-25T00:10:17.474Z,1.15
2023-02-25T00:11:36.462Z,1.13
2023-02-25T00:13:17.420Z,1.15
2023-02-25T00:14:20.679Z,1.11
2023-02-25T00:15:25.568Z,1.07
2023-02-25T00:16:33.169Z,1.05
2023-02-25T00:17:41.268Z,1.07
2023-02-25T00:18:49.004Z,1.04
2023-02-25T00:19:56.700Z,1.04
2023-02-25T00:21:00.440Z,1.04
2023-02-25T00:22:06.819Z,1.02
2023-02-25T00:23:08.881Z,1.00
2023-02-25T00:24:16.682Z,1.02
2023-02-25T00:25:19.272Z,1.02
2023-02-25T00:26:25.766Z,1.00
2023-02-25T00:27:30.666Z,1.00
2023-02-25T00:28:46.243Z,0.97
2023-02-25T00:29:48.546Z,0.96
2023-02-25T00:31:02.089Z,0.95
2023-02-25T00:32:09.811Z,0.99
2023-02-25T00:33:13.495Z,0.99
2023-02-25T00:34:25.786Z,0.99
2023-02-25T00:35:28.342Z,0.96
2023-02-25T00:36:34.596Z,0.98
2023-02-25T00:37:40.240Z,0.96
2023-02-25T00:38:48.453Z,1.01
2023-02-25T00:39:50.662Z,1.00
2023-02-25T00:40:55.421Z,0.99
2023-02-25T00:41:57.690Z,1.02
2023-02-25T00:43:02.552Z,1.02
2023-02-25T00:44:05.464Z,0.99
2023-02-25T00:45:11.761Z,1.02
2023-02-25T00:46:13.982Z,1.02
2023-02-25T00:47:22.806Z,1.00
2023-02-25T00:48:25.011Z,0.98
2023-02-25T00:49:32.463Z,1.00
2023-02-25T00:50:35.052Z,1.01
2023-02-25T00:51:41.846Z,0.98
2023-02-25T00:52:44.148Z,0.97
2023-02-25T00:53:52.908Z,1.01
2023-02-25T00:54:55.372Z,1.00
2023-02-25T00:56:14.053Z,0.97
2023-02-25T00:57:20.395Z,0.97
2023-02-25T00:58:26.682Z,0.94
2023-02-25T00:59:31.596Z,0.92
2023-02-25T01:00:46.465Z,0.95
2023-02-25T01:02:01.144Z,0.98
2023-02-25T01:03:06.178Z,0.96
2023-02-25T01:04:11.934Z,0.94
2023-02-25T01:05:15.011Z,0.95
2023-02-25T01:06:20.466Z,0.94
2023-02-25T01:07:24.578Z,0.93
2023-02-25T01:08:29.414Z,0.93
2023-02-25T01:09:31.664Z,0.91
2023-02-25T01:10:36.540Z,0.90
2023-02-25T01:11:40.750Z,0.89
2023-02-25T01:12:50.079Z,0.87
2023-02-25T01:13:54.870Z,0.93
2023-02-25T01:15:00.443Z,0.88
2023-02-25T01:16:02.773Z,0.89
2023-02-25T01:17:09.875Z,0.94
2023-02-25T01:18:31.105Z,0.97
2023-02-25T01:19:36.091Z,1.01
2023-02-25T01:20:39.661Z,1.01
2023-02-25T01:21:48.307Z,0.97
2023-02-25T01:22:53.176Z,1.01
2023-02-25T01:24:00.440Z,0.97
2023-02-25T01:25:02.678Z,0.95
2023-02-25T01:26:08.258Z,0.97
2023-02-25T01:27:11.855Z,0.99
2023-02-25T01:28:18.758Z,0.96
2023-02-25T01:29:22.986Z,0.94
2023-02-25T01:30:27.876Z,0.97
2023-02-25T01:31:31.687Z,0.95
2023-02-25T01:32:42.613Z,0.97
2023-02-25T01:33:51.538Z,0.96
2023-02-25T01:35:03.519Z,0.95
2023-02-25T01:36:06.604Z,0.91
2023-02-25T01:37:13.753Z,0.95
2023-02-25T01:38:16.170Z,0.97
2023-02-25T01:39:22.715Z,0.97
2023-02-25T01:40:25.070Z,0.92
2023-02-25T01:41:31.975Z,0.95
2023-02-25T01:42:34.146Z,0.91
2023-02-25T01:43:39.172Z,0.89
2023-02-25T01:45:11.007Z,0.84
2023-02-25T01:46:17.774Z,0.78
2023-02-25T01:47:22.876Z,0.82
2023-02-25T01:48:30.993Z,0.78
2023-02-25T01:49:43.275Z,0.77
2023-02-25T01:50:53.403Z,0.79
2023-02-25T01:52:00.937Z,0.83
2023-02-25T01:53:08.975Z,0.89
2023-02-25T01:54:15.130Z,0.92
2023-02-25T01:55:18.319Z,0.86
2023-02-25T01:56:26.826Z,0.83
2023-02-25T01:57:30.611Z,0.83
2023-02-25T01:58:36.893Z,0.85
2023-02-25T01:59:42.161Z,0.88
2023-02-25T02:00:48.314Z,0.86
2023-02-25T02:01:51.755Z,0.84
2023-02-25T02:02:58.513Z,0.86
2023-02-25T02:04:07.333Z,0.87
2023-02-25T02:05:15.489Z,0.81
2023-02-25T02:06:24.363Z,0.80
2023-02-25T02:07:31.054Z,0.75
2023-02-25T02:08:34.881Z,0.81
2023-02-25T02:09:43.309Z,0.81
2023-02-25T02:10:48.275Z,0.84
2023-02-25T02:11:56.413Z,0.79
2023-02-25T02:13:00.918Z,0.82
2023-02-25T02:14:08.659Z,0.84
2023-02-25T02:15:25.017Z,0.83
2023-02-25T02:17:02.650Z,0.80
2023-02-25T02:18:07.946Z,0.79
2023-02-25T02:19:30.430Z,0.80
2023-02-25T02:20:50.550Z,0.72
2023-02-25T02:22:05.747Z,0.77
2023-02-25T02:23:45.389Z,0.76
2023-02-25T02:25:30.104Z,0.80
2023-02-25T02:26:54.637Z,0.80
2023-02-25T02:28:29.503Z,0.79
2023-02-25T02:30:01.395Z,0.78
2023-02-25T02:31:24.942Z,0.78
2023-02-25T02:32:41.015Z,0.84
2023-02-25T02:33:52.570Z,0.80
2023-02-25T02:35:09.613Z,0.82
2023-02-25T02:36:21.258Z,0.82
2023-02-25T02:37:35.731Z,0.81
2023-02-25T02:38:51.696Z,0.82
2023-02-25T02:40:21.366Z,0.82
2023-02-25T02:41:29.788Z,0.83
2023-02-25T02:44:07.542Z,0.80
2023-02-25T02:45:18.409Z,0.80
2023-02-25T02:46:34.635Z,0.78
2023-02-25T02:47:39.753Z,0.80
2023-02-25T02:48:55.575Z,0.80
2023-02-25T02:50:02.928Z,0.81
2023-02-25T02:51:14.241Z,0.82
2023-02-25T02:52:21.055Z,0.84
2023-02-25T02:53:35.206Z,0.83
2023-02-25T02:54:39.607Z,0.81
2023-02-25T02:55:49.454Z,0.82
2023-02-25T02:56:57.424Z,0.81
2023-02-25T02:58:08.512Z,0.81
2023-02-25T02:59:21.403Z,0.81
2023-02-25T03:00:30.508Z,0.78
2023-02-25T03:01:42.066Z,0.77
2023-02-25T03:03:05.516Z,0.80
2023-02-25T03:04:12.697Z,0.78
2023-02-25T03:05:27.479Z,0.77
2023-02-25T03:06:34.525Z,0.77
2023-02-25T03:07:44.525Z,0.72
2023-02-25T03:08:57.155Z,0.74
2023-02-25T03:10:05.775Z,0.75
2023-02-25T03:11:10.616Z,0.73
2023-02-25T03:12:25.911Z,0.73
2023-02-25T03:13:32.811Z,0.70
2023-02-25T03:14:39.411Z,0.71
2023-02-25T03:15:49.132Z,0.72
2023-02-25T03:17:03.697Z,0.74
2023-02-25T03:18:23.030Z,0.74
2023-02-25T03:19:36.393Z,0.74
2023-02-25T03:20:44.867Z,0.74
2023-02-25T03:21:53.241Z,0.73
2023-02-25T03:23:00.139Z,0.73
2023-02-25T03:24:09.426Z,0.72
2023-02-25T03:25:18.203Z,0.70
2023-02-25T03:26:27.214Z,0.69
2023-02-25T03:27:35.829Z,0.71
2023-02-25T03:28:44.717Z,0.72
2023-02-25T03:29:47.362Z,0.68
2023-02-25T03:31:01.536Z,0.68
2023-02-25T03:32:14.776Z,0.65
2023-02-25T03:33:48.714Z,0.62
2023-02-25T03:35:00.207Z,0.63
2023-02-25T03:36:07.638Z,0.62
2023-02-25T03:37:19.132Z,0.67
2023-02-25T03:38:31.087Z,0.72
2023-02-25T03:39:41.595Z,0.69
2023-02-25T03:40:58.738Z,0.70
2023-02-25T03:42:07.823Z,0.65
2023-02-25T03:43:18.397Z,0.70
2023-02-25T03:44:28.631Z,0.66
2023-02-25T03:45:37.032Z,0.63
2023-02-25T03:46:56.592Z,0.58
2023-02-25T03:48:08.279Z,0.59
2023-02-25T03:49:26.976Z,0.59
2023-02-25T03:50:39.355Z,0.55
2023-02-25T03:51:47.056Z,0.51
2023-02-25T03:52:56.617Z,0.48
2023-02-25T03:54:05.908Z,0.45
2023-02-25T03:55:13.585Z,0.51
2023-02-25T03:56:17.810Z,0.50
2023-02-25T03:57:35.295Z,0.54
2023-02-25T03:58:40.386Z,0.51
2023-02-25T03:59:46.465Z,0.47
2023-02-25T04:00:51.656Z,0.49
2023-02-25T04:01:59.440Z,0.51
2023-02-25T04:03:05.785Z,0.51
2023-02-25T04:04:10.739Z,0.50
2023-02-25T04:05:13.107Z,0.48
2023-02-25T04:06:18.005Z,0.46
2023-02-25T04:07:20.369Z,0.47
2023-02-25T04:08:25.551Z,0.45
2023-02-25T04:09:29.285Z,0.46
2023-02-25T04:10:34.574Z,0.49
2023-02-25T04:11:37.104Z,0.47
2023-02-25T04:12:42.302Z,0.45
2023-02-25T04:14:07.047Z,0.46
2023-02-25T04:15:11.439Z,0.43
2023-02-25T04:16:14.562Z,0.41
2023-02-25T04:17:19.605Z,0.39
2023-02-25T04:18:25.116Z,0.41
2023-02-25T04:19:31.248Z,0.41
2023-02-25T04:20:33.974Z,0.43
2023-02-25T04:21:40.258Z,0.42
2023-02-25T04:22:44.518Z,0.44
2023-02-25T04:23:51.746Z,0.44
2023-02-25T04:24:53.973Z,0.37
2023-02-25T04:26:00.411Z,0.39
2023-02-25T04:27:02.774Z,0.39
2023-02-25T04:28:07.858Z,0.34
2023-02-25T04:29:10.115Z,0.34
2023-02-25T04:30:16.576Z,0.32
2023-02-25T04:31:20.177Z,0.32
2023-02-25T04:32:25.329Z,0.31
2023-02-25T04:33:33.069Z,0.36
2023-02-25T04:34:35.796Z,0.37
2023-02-25T04:35:43.221Z,0.32
2023-02-25T04:36:48.662Z,0.32
2023-02-25T04:37:54.660Z,0.30
2023-02-25T04:38:57.708Z,0.31
2023-02-25T04:40:02.725Z,0.36
2023-02-25T04:41:05.168Z,0.34
2023-02-25T04:42:10.348Z,0.32
2023-02-25T04:43:12.653Z,0.30
2023-02-25T04:44:17.499Z,0.30
2023-02-25T04:45:26.873Z,0.29
2023-02-25T04:46:34.063Z,0.28
2023-02-25T04:47:36.646Z,0.24
2023-02-25T04:48:45.729Z,0.27
2023-02-25T04:49:48.099Z,0.24
2023-02-25T04:50:52.964Z,0.21
2023-02-25T04:52:18.212Z,0.21
2023-02-25T04:53:23.581Z,0.25
2023-02-25T04:54:25.864Z,0.25
2023-02-25T04:55:30.825Z,0.26
2023-02-25T04:56:34.754Z,0.25
2023-02-25T04:57:42.595Z,0.23
2023-02-25T04:58:45.364Z,0.20
2023-02-25T04:59:51.999Z,0.18
2023-02-25T05:00:57.777Z,0.20
2023-02-25T05:02:02.814Z,0.24
2023-02-25T05:03:04.993Z,0.22
2023-02-25T05:04:17.014Z,0.20
2023-02-25T05:05:19.634Z,0.21
2023-02-25T05:06:26.264Z,0.24
2023-02-25T05:07:28.324Z,0.24
2023-02-25T05:08:45.118Z,0.21
2023-02-25T05:09:48.544Z,0.20
2023-02-25T05:10:53.979Z,0.19
2023-02-25T05:11:56.258Z,0.21
2023-02-25T05:13:01.382Z,0.20
2023-02-25T05:14:03.790Z,0.19
2023-02-25T05:15:10.917Z,0.17
2023-02-25T05:16:35.228Z,0.19
2023-02-25T05:17:40.335Z,0.22
2023-02-25T05:18:44.729Z,0.22
2023-02-25T05:19:52.236Z,0.22
2023-02-25T05:20:54.364Z,0.20
2023-02-25T05:22:03.685Z,0.20
2023-02-25T05:23:06.042Z,0.21
2023-02-25T05:24:11.418Z,0.21
2023-02-25T05:25:14.573Z,0.27
2023-02-25T05:26:23.974Z,0.24
2023-02-25T05:27:27.842Z,0.22
2023-02-25T05:28:32.761Z,0.20
2023-02-25T05:29:35.222Z,0.19
2023-02-25T05:30:44.093Z,0.19
2023-02-25T05:31:47.193Z,0.27
2023-02-25T05:32:52.239Z,0.22
2023-02-25T05:33:56.210Z,0.16
2023-02-25T05:35:04.012Z,0.18
2023-02-25T05:36:07.258Z,0.21
2023-02-25T05:37:12.127Z,0.18
2023-02-25T05:38:14.393Z,0.19
2023-02-25T05:39:19.268Z,0.17
2023-02-25T05:40:21.330Z,0.16
2023-02-25T05:41:26.198Z,0.20
2023-02-25T05:42:28.456Z,0.20
2023-02-25T05:43:34.987Z,0.17
2023-02-25T05:44:37.220Z,0.19
2023-02-25T05:45:42.052Z,0.15
2023-02-25T05:46:44.722Z,0.13
2023-02-25T05:47:50.100Z,0.14
2023-02-25T05:48:52.401Z,0.16
2023-02-25T05:49:57.286Z,0.12
2023-02-25T05:51:07.113Z,0.16
2023-02-25T05:52:12.239Z,0.13
2023-02-25T05:53:14.616Z,0.12
2023-02-25T05:54:21.255Z,0.11
2023-02-25T05:55:24.440Z,0.11
2023-02-25T05:56:32.296Z,0.13
2023-02-25T05:57:35.006Z,0.09
2023-02-25T05:58:41.741Z,0.16
2023-02-25T05:59:45.058Z,0.16
2023-02-25T06:00:49.991Z,0.12
2023-02-25T06:01:55.073Z,0.15
2023-02-25T06:03:00.771Z,0.17
2023-02-25T06:04:03.258Z,0.15
2023-02-25T06:05:09.515Z,0.15
2023-02-25T06:06:15.983Z,0.11
2023-02-25T06:07:21.009Z,0.10
2023-02-25T06:08:25.259Z,0.16
2023-02-25T06:09:30.495Z,0.16
2023-02-25T06:10:40.227Z,0.10
2023-02-25T06:11:51.068Z,0.11
2023-02-25T06:12:53.535Z,0.13
2023-02-25T06:14:01.050Z,0.11
2023-02-25T06:15:03.882Z,0.13
2023-02-25T06:16:09.908Z,0.16
2023-02-25T06:17:12.340Z,0.19
2023-02-25T06:18:18.299Z,0.18
2023-02-25T06:19:20.596Z,0.20
2023-02-25T06:20:25.479Z,0.20
2023-02-25T06:21:31.166Z,0.18
2023-02-25T06:22:36.168Z,0.19
2023-02-25T06:23:41.102Z,0.18
2023-02-25T06:24:48.888Z,0.20
2023-02-25T06:25:51.254Z,0.21
2023-02-25T06:26:56.037Z,0.19
2023-02-25T06:27:58.615Z,0.16
2023-02-25T06:29:06.545Z,0.18
2023-02-25T06:30:11.957Z,0.22
2023-02-25T06:31:19.496Z,0.20
2023-02-25T06:32:21.944Z,0.26
2023-02-25T06:33:27.199Z,0.28
2023-02-25T06:34:33.182Z,0.22
2023-02-25T06:35:39.404Z,0.22
2023-02-25T06:36:44.426Z,0.19
2023-02-25T06:37:49.501Z,0.22
2023-02-25T06:38:53.697Z,0.26
2023-02-25T06:40:00.259Z,0.28
2023-02-25T06:41:17.155Z,0.32
2023-02-25T06:42:22.154Z,0.28
2023-02-25T06:43:24.489Z,0.26
2023-02-25T06:44:31.071Z,0.21
2023-02-25T06:45:33.467Z,0.23
2023-02-25T06:46:40.769Z,0.22
2023-02-25T06:47:45.271Z,0.22
2023-02-25T06:48:50.285Z,0.24
2023-02-25T06:49:53.966Z,0.28
2023-02-25T06:50:59.127Z,0.27
2023-02-25T06:52:07.094Z,0.30
2023-02-25T06:53:09.976Z,0.30
2023-02-25T06:54:14.840Z,0.34
2023-02-25T06:55:19.463Z,0.38
2023-02-25T06:56:24.722Z,0.34
2023-02-25T06:57:30.089Z,0.31
2023-02-25T06:58:35.171Z,0.34
2023-02-25T06:59:40.738Z,0.33
2023-02-25T07:00:47.161Z,0.33
2023-02-25T07:01:55.639Z,0.36
2023-02-25T07:03:05.822Z,0.45
2023-02-25T07:04:08.163Z,0.43
2023-02-25T07:05:15.100Z,0.42
2023-02-25T07:06:20.894Z,0.49
2023-02-25T07:07:30.730Z,0.44
2023-02-25T07:08:37.721Z,0.52
2023-02-25T07:09:47.882Z,0.48
2023-02-25T07:10:53.313Z,0.53
2023-02-25T07:12:00.176Z,0.49
2023-02-25T07:13:09.024Z,0.47
2023-02-25T07:14:20.455Z,0.46
2023-02-25T07:15:23.991Z,0.43
2023-02-25T07:16:32.364Z,0.51
2023-02-25T07:17:34.527Z,0.50
2023-02-25T07:18:39.414Z,0.54
2023-02-25T07:19:41.940Z,0.56
2023-02-25T07:20:46.804Z,0.54
2023-02-25T07:21:50.011Z,0.50
2023-02-25T07:22:57.350Z,0.57
2023-02-25T07:24:00.248Z,0.62
2023-02-25T07:25:08.332Z,0.62
2023-02-25T07:26:14.793Z,0.54
2023-02-25T07:27:21.191Z,0.47
2023-02-25T07:28:26.692Z,0.54
2023-02-25T07:29:37.328Z,0.64
2023-02-25T07:30:41.803Z,0.53
2023-02-25T07:31:58.964Z,0.61
2023-02-25T07:33:03.386Z,0.58
2023-02-25T07:34:08.526Z,0.52
2023-02-25T07:35:12.820Z,0.51
2023-02-25T07:36:19.968Z,0.53
2023-02-25T07:37:25.117Z,0.61
2023-02-25T07:38:34.553Z,0.72
2023-02-25T07:39:47.640Z,0.75
2023-02-25T07:40:50.591Z,0.78
2023-02-25T07:42:02.713Z,0.84
2023-02-25T07:43:08.769Z,0.75
2023-02-25T07:44:20.709Z,0.68
2023-02-25T07:45:25.120Z,0.77
2023-02-25T07:46:39.623Z,0.86
2023-02-25T07:47:43.415Z,0.77
2023-02-25T07:48:55.414Z,0.82
2023-02-25T07:49:59.288Z,0.94
2023-02-25T07:51:18.832Z,0.98
2023-02-25T07:52:21.213Z,1.03
2023-02-25T07:53:29.149Z,1.04
2023-02-25T07:54:36.139Z,1.13
2023-02-25T07:55:41.201Z,1.23
2023-02-25T07:56:47.126Z,1.06
2023-02-25T07:57:52.081Z,1.09
2023-02-25T07:58:55.619Z,1.05
2023-02-25T08:00:03.044Z,1.19
2023-02-25T08:01:08.618Z,1.27
2023-02-25T08:02:14.412Z,1.30
2023-02-25T08:03:27.020Z,1.27
2023-02-25T08:04:32.577Z,1.25
2023-02-25T08:05:35.550Z,1.31
2023-02-25T08:06:46.520Z,1.37
2023-02-25T08:07:52.859Z,1.26
2023-02-25T08:08:57.834Z,1.23
2023-02-25T08:10:25.429Z,1.34
2023-02-25T08:11:32.434Z,1.32
2023-02-25T08:12:40.795Z,1.29
2023-02-25T08:13:48.788Z,1.41
2023-02-25T08:14:53.069Z,1.46
2023-02-25T08:16:22.088Z,1.53
2023-02-25T08:17:29.524Z,1.52
2023-02-25T08:18:33.620Z,1.55
2023-02-25T08:19:41.455Z,1.53
2023-02-25T08:20:48.425Z,1.58
2023-02-25T08:23:23.577Z,1.74
2023-02-25T08:24:30.480Z,1.58
2023-02-25T08:25:41.700Z,1.50
2023-02-25T08:26:48.226Z,1.60
2023-02-25T08:28:01.382Z,1.61
2023-02-25T08:29:18.804Z,1.50
2023-02-25T08:30:23.018Z,1.52
2023-02-25T08:31:29.837Z,1.73
2023-02-25T08:32:35.536Z,1.82
2023-02-25T08:33:46.815Z,1.88
2023-02-25T08:34:53.968Z,1.77
2023-02-25T08:36:01.660Z,1.70
2023-02-25T08:37:04.207Z,1.67
2023-02-25T08:38:10.363Z,1.85
2023-02-25T08:39:15.058Z,2.05
2023-02-25T08:40:21.105Z,2.11
2023-02-25T08:41:32.283Z,2.26
2023-02-25T08:42:37.326Z,2.24
2023-02-25T08:43:43.353Z,2.31
2023-02-25T08:44:48.468Z,2.26
2023-02-25T08:46:28.834Z,2.43
2023-02-25T08:47:37.937Z,2.33
2023-02-25T08:48:44.544Z,2.45
2023-02-25T08:49:55.362Z,2.62
2023-02-25T08:51:06.160Z,2.61
2023-02-25T08:52:13.311Z,2.83
2023-02-25T08:53:17.020Z,3.11
2023-02-25T08:54:22.944Z,3.45
2023-02-25T08:55:26.030Z,3.42
2023-02-25T08:56:35.618Z,3.88
2023-02-25T08:57:37.911Z,3.90
2023-02-25T08:58:45.472Z,3.80
2023-02-25T08:59:52.510Z,3.54
2023-02-25T09:00:55.492Z,3.32
2023-02-25T09:02:01.924Z,3.38
2023-02-25T09:03:09.185Z,3.46
2023-02-25T09:04:14.770Z,3.14
2023-02-25T09:05:20.568Z,2.78
2023-02-25T09:06:30.881Z,2.59
2023-02-25T09:07:33.866Z,2.50
2023-02-25T09:08:46.980Z,2.50
2023-02-25T09:09:49.664Z,2.72
2023-02-25T09:10:56.208Z,2.74
2023-02-25T09:12:05.527Z,2.73
2023-02-25T09:13:07.947Z,2.77
2023-02-25T09:14:13.302Z,2.50
2023-02-25T09:15:15.522Z,2.63
2023-02-25T09:16:22.858Z,2.73
2023-02-25T09:17:29.037Z,2.55
2023-02-25T09:18:32.447Z,2.38
2023-02-25T09:19:39.101Z,2.45
2023-02-25T09:20:41.758Z,2.41
2023-02-25T09:21:52.460Z,2.55
2023-02-25T09:23:00.425Z,2.43
2023-02-25T09:24:06.959Z,2.72
2023-02-25T09:25:13.735Z,2.52
2023-02-25T09:26:18.562Z,2.46
2023-02-25T09:27:28.496Z,2.63
2023-02-25T09:28:33.730Z,2.85
2023-02-25T09:29:39.780Z,2.78
2023-02-25T09:30:48.247Z,2.74
2023-02-25T09:31:51.006Z,2.60
2023-02-25T09:32:58.030Z,2.26
2023-02-25T09:34:01.625Z,2.17
2023-02-25T09:35:07.551Z,2.36
2023-02-25T09:36:14.761Z,2.42
2023-02-25T09:37:20.158Z,2.55
2023-02-25T09:38:26.306Z,2.59
2023-02-25T09:39:28.774Z,2.64
2023-02-25T09:40:33.769Z,2.94
2023-02-25T09:41:47.482Z,2.96
2023-02-25T09:43:07.081Z,2.90
2023-02-25T09:44:17.112Z,2.89
2023-02-25T09:45:28.620Z,2.64
2023-02-25T09:46:35.794Z,2.68
2023-02-25T09:47:48.349Z,2.89
2023-02-25T09:48:55.339Z,2.98
2023-02-25T09:50:04.696Z,3.03
2023-02-25T09:51:21.368Z,3.31
2023-02-25T09:52:36.450Z,3.22
2023-02-25T09:53:49.544Z,3.08
2023-02-25T09:55:02.259Z,2.99
2023-02-25T09:56:09.922Z,3.06
2023-02-25T09:57:19.856Z,2.84
2023-02-25T09:58:34.351Z,2.77
2023-02-25T09:59:36.886Z,3.16
2023-02-25T10:00:46.004Z,3.29
2023-02-25T10:01:57.013Z,3.27
2023-02-25T10:03:08.245Z,3.05
2023-02-25T10:04:24.425Z,3.06
2023-02-25T10:05:39.381Z,3.36
2023-02-25T10:06:58.882Z,3.39
2023-02-25T10:08:21.118Z,3.14
2023-02-25T10:09:34.477Z,3.27
2023-02-25T10:10:49.604Z,3.12
2023-02-25T10:11:55.425Z,3.25
2023-02-25T10:13:12.898Z,3.31
2023-02-25T10:14:37.703Z,3.17
2023-02-25T10:15:59.930Z,3.02
2023-02-25T10:17:12.771Z,3.10
2023-02-25T10:18:33.223Z,3.03
2023-02-25T10:19:52.913Z,2.87
2023-02-25T10:21:12.817Z,2.82
2023-02-25T10:22:37.402Z,2.72
2023-02-25T10:24:01.136Z,2.66
2023-02-25T10:25:12.253Z,2.63
2023-02-25T10:26:22.748Z,2.77
2023-02-25T10:27:33.046Z,2.87
2023-02-25T10:28:38.611Z,3.11
2023-02-25T10:29:51.206Z,2.74
2023-02-25T10:31:02.445Z,2.77
2023-02-25T10:32:19.855Z,2.77
2023-02-25T10:33:27.492Z,2.79
2023-02-25T10:34:33.371Z,2.77
2023-02-25T10:35:58.839Z,2.97
2023-02-25T10:37:04.119Z,3.23
2023-02-25T10:38:09.081Z,3.39
2023-02-25T10:39:17.288Z,3.47
2023-02-25T10:40:22.137Z,3.46
2023-02-25T10:41:31.342Z,3.28
2023-02-25T10:42:37.295Z,3.01
2023-02-25T10:43:44.463Z,2.85
2023-02-25T10:44:55.580Z,3.13
2023-02-25T10:46:14.451Z,3.12
2023-02-25T10:47:35.857Z,3.14
2023-02-25T10:48:43.611Z,2.78
2023-02-25T10:50:16.132Z,3.06
2023-02-25T10:51:22.209Z,3.04
2023-02-25T10:52:24.874Z,2.96
2023-02-25T10:53:51.275Z,2.92
2023-02-25T10:54:56.373Z,3.02
2023-02-25T10:56:07.010Z,3.01
2023-02-25T10:57:19.114Z,2.62
2023-02-25T10:58:28.361Z,2.29
2023-02-25T10:59:38.831Z,2.54
2023-02-25T11:00:46.441Z,2.69
2023-02-25T11:01:52.151Z,2.59
2023-02-25T11:03:15.854Z,2.45
2023-02-25T11:04:26.430Z,2.76
2023-02-25T11:05:38.425Z,2.79
2023-02-25T11:06:45.533Z,2.87
2023-02-25T11:07:49.937Z,2.87
2023-02-25T11:08:56.617Z,3.30
2023-02-25T11:10:17.966Z,3.17
2023-02-25T11:11:25.987Z,3.27
2023-02-25T11:12:39.750Z,2.96
2023-02-25T11:13:45.460Z,3.22
2023-02-25T11:14:52.217Z,3.27
2023-02-25T11:16:02.920Z,2.89
2023-02-25T11:17:12.452Z,2.81
2023-02-25T11:18:22.519Z,3.20
2023-02-25T11:19:32.274Z,3.39
2023-02-25T11:20:36.215Z,3.05
2023-02-25T11:21:43.112Z,2.80
2023-02-25T11:22:46.926Z,3.21
2023-02-25T11:23:53.554Z,2.81
2023-02-25T11:25:01.096Z,3.07
2023-02-25T11:26:07.173Z,3.10
2023-02-25T11:27:37.241Z,3.20
2023-02-25T11:28:45.482Z,3.36
2023-02-25T11:29:54.705Z,3.33
2023-02-25T11:31:08.081Z,3.06
2023-02-25T11:32:17.130Z,3.29
2023-02-25T11:33:25.922Z,3.01
2023-02-25T11:34:34.940Z,2.90
2023-02-25T11:35:43.332Z,3.06
2023-02-25T11:36:50.861Z,2.98
2023-02-25T11:37:54.939Z,2.98
2023-02-25T11:39:18.582Z,2.86
2023-02-25T11:40:25.078Z,2.87
2023-02-25T11:41:34.601Z,3.01
2023-02-25T11:42:40.281Z,3.11
2023-02-25T11:43:45.256Z,2.97
2023-02-25T11:44:47.936Z,2.76
2023-02-25T11:45:57.746Z,2.84
2023-02-25T11:47:26.920Z,2.50
2023-02-25T11:48:34.903Z,2.47
2023-02-25T11:50:08.827Z,2.43
2023-02-25T11:51:28.320Z,2.58
2023-02-25T11:52:39.593Z,2.35
2023-02-25T11:54:03.209Z,2.62
2023-02-25T11:55:27.225Z,2.67
2023-02-25T11:56:34.429Z,2.76
2023-02-25T11:57:49.667Z,2.80
2023-02-25T11:59:10.644Z,2.65
2023-02-25T12:00:29.990Z,2.55
2023-02-25T12:01:52.622Z,2.70
2023-02-25T12:03:10.623Z,2.58
2023-02-25T12:04:45.678Z,2.54
2023-02-25T12:05:59.427Z,2.33
2023-02-25T12:07:23.179Z,2.47
2023-02-25T12:08:46.589Z,2.63
2023-02-25T12:10:15.592Z,2.47
2023-02-25T12:12:03.997Z,2.53
2023-02-25T12:13:29.123Z,2.70
2023-02-25T12:15:06.461Z,2.67
2023-02-25T12:16:45.327Z,2.52
2023-02-25T12:18:24.426Z,2.60
2023-02-25T12:20:08.537Z,2.54
2023-02-25T12:21:35.964Z,2.53
2023-02-25T12:23:09.674Z,2.60
2023-02-25T12:24:44.388Z,2.79
2023-02-25T12:25:57.785Z,2.76
2023-02-25T12:27:21.345Z,2.69
2023-02-25T12:28:53.358Z,2.79
2023-02-25T12:30:32.683Z,2.69
2023-02-25T12:32:17.399Z,2.50
2023-02-25T12:33:53.339Z,2.47
2023-02-25T12:35:27.926Z,2.43
2023-02-25T12:36:47.461Z,2.48
2023-02-25T12:38:27.124Z,2.45
2023-02-25T12:39:50.750Z,2.64
2023-02-25T12:41:24.431Z,2.69
2023-02-25T12:42:39.534Z,2.52
2023-02-25T12:43:52.512Z,2.67
2023-02-25T12:45:23.340Z,2.89
2023-02-25T12:46:38.723Z,2.84
2023-02-25T12:47:54.598Z,2.57
2023-02-25T12:49:37.089Z,2.57
2023-02-25T12:51:08.601Z,2.65
2023-02-25T12:52:27.461Z,2.61
2023-02-25T12:53:43.858Z,2.09
2023-02-25T12:55:13.112Z,2.26
2023-02-25T12:56:39.939Z,2.07
2023-02-25T12:57:52.210Z,1.95
2023-02-25T12:59:31.591Z,1.93
2023-02-25T13:01:06.117Z,1.60
2023-02-25T13:02:45.850Z,1.60
2023-02-25T13:04:15.816Z,1.50
2023-02-25T13:05:51.397Z,1.58
2023-02-25T13:07:11.148Z,1.75
2023-02-25T13:08:27.914Z,1.85
2023-02-25T13:09:55.310Z,1.77
2023-02-25T13:11:10.668Z,1.79
2023-02-25T13:12:31.862Z,1.85
2023-02-25T13:14:06.514Z,1.99
2023-02-25T13:15:14.474Z,2.09
2023-02-25T13:16:32.138Z,1.93
2023-02-25T13:18:06.126Z,1.92
2023-02-25T13:19:32.752Z,2.15
2023-02-25T13:20:59.365Z,2.29
2023-02-25T13:22:14.297Z,2.65
2023-02-25T13:23:38.381Z,2.82
2023-02-25T13:24:50.961Z,2.96
2023-02-25T13:26:22.446Z,3.42
2023-02-25T13:28:02.802Z,3.18
2023-02-25T13:29:23.101Z,3.33
2023-02-25T13:30:36.319Z,3.03
2023-02-25T13:31:51.663Z,3.03
2023-02-25T13:33:15.722Z,2.90
2023-02-25T13:34:37.762Z,2.65
2023-02-25T13:35:45.355Z,2.72
2023-02-25T13:37:07.464Z,2.81
2023-02-25T13:38:28.715Z,2.77
2023-02-25T13:39:56.360Z,3.06
2023-02-25T13:41:19.007Z,3.02
2023-02-25T13:42:43.537Z,2.68
2023-02-25T13:44:06.940Z,2.23
2023-02-25T13:45:36.081Z,2.30
2023-02-25T13:47:10.869Z,2.73
2023-02-25T13:48:41.887Z,3.11
2023-02-25T13:50:19.252Z,2.81
2023-02-25T13:51:40.174Z,2.53
2023-02-25T13:53:04.553Z,2.60
2023-02-25T13:54:31.094Z,2.53
2023-02-25T13:55:48.680Z,2.65
2023-02-25T13:57:07.356Z,2.43
2023-02-25T13:58:34.680Z,2.26
2023-02-25T14:00:07.330Z,2.11
2023-02-25T14:01:45.133Z,2.26
2023-02-25T14:04:47.573Z,2.16
2023-02-25T14:06:19.334Z,2.16
2023-02-25T14:07:43.981Z,2.22
2023-02-25T14:09:20.250Z,2.18
2023-02-25T14:10:41.458Z,2.22
2023-02-25T14:12:11.344Z,2.24
2023-02-25T14:13:42.513Z,2.37
2023-02-25T14:15:07.887Z,2.76
2023-02-25T14:16:29.012Z,3.45
2023-02-25T14:17:54.923Z,4.41
2023-02-25T14:19:17.606Z,4.53
2023-02-25T14:20:31.941Z,5.49
2023-02-25T14:21:53.342Z,5.70
2023-02-25T14:23:02.035Z,7.38
2023-02-25T14:24:15.256Z,8.13
2023-02-25T14:25:39.798Z,8.30
2023-02-25T14:26:51.326Z,8.59
2023-02-25T14:28:13.630Z,8.80
2023-02-25T14:29:24.807Z,8.69
2023-02-25T14:30:42.729Z,9.16
2023-02-25T14:32:16.504Z,9.83
2023-02-25T14:33:55.941Z,11.06
2023-02-25T14:35:19.297Z,10.15
2023-02-25T14:37:02.157Z,10.40
2023-02-25T14:38:14.428Z,10.10
2023-02-25T14:39:35.492Z,9.90
2023-02-25T14:40:51.218Z,8.16
2023-02-25T14:42:08.225Z,7.05
2023-02-25T14:43:39.519Z,6.80
2023-02-25T14:44:53.839Z,5.25
2023-02-25T14:46:04.745Z,5.14
2023-02-25T14:47:16.864Z,4.62
2023-02-25T14:48:31.251Z,4.69
2023-02-25T14:49:44.283Z,4.67
2023-02-25T14:51:08.363Z,4.22
2023-02-25T14:52:47.995Z,4.42
2023-02-25T14:54:33.484Z,4.02
2023-02-25T14:56:18.198Z,3.74
2023-02-25T14:57:57.136Z,4.02
2023-02-25T14:59:28.309Z,3.45
2023-02-25T15:00:56.420Z,3.17
2023-02-25T15:02:27.212Z,2.66
2023-02-25T15:03:54.477Z,2.66
2023-02-25T15:05:27.606Z,3.04
2023-02-25T15:06:42.227Z,3.47
2023-02-25T15:08:15.439Z,3.53
2023-02-25T15:09:53.758Z,2.94
2023-02-25T15:11:28.539Z,2.81
2023-02-25T15:12:53.479Z,2.73
2023-02-25T15:14:29.140Z,2.41
2023-02-25T15:16:04.708Z,2.38
2023-02-25T15:17:45.090Z,2.37
2023-02-25T15:19:45.008Z,2.34
2023-02-25T15:20:51.967Z,2.15
2023-02-25T15:22:20.480Z,2.33
2023-02-25T15:23:49.474Z,2.21
2023-02-25T15:25:31.432Z,2.25
2023-02-25T15:26:43.590Z,2.19
2023-02-25T15:30:10.482Z,2.45
2023-02-25T15:31:43.363Z,2.61
2023-02-25T15:33:18.795Z,2.71
2023-02-25T15:34:40.814Z,2.66
2023-02-25T15:35:54.026Z,2.58
2023-02-25T15:37:27.947Z,2.51
2023-02-25T15:38:46.358Z,2.58
2023-02-25T15:39:56.039Z,2.66
2023-02-25T15:41:05.504Z,2.57
2023-02-25T15:42:11.328Z,2.42
2023-02-25T15:43:46.781Z,2.32
2023-02-25T15:44:54.776Z,2.59
2023-02-25T15:46:42.429Z,2.59
2023-02-25T15:47:57.159Z,2.62
2023-02-25T15:49:14.400Z,2.72
2023-02-25T15:50:58.397Z,2.71
2023-02-25T15:52:11.813Z,2.74
2023-02-25T15:53:40.029Z,2.52
2023-02-25T15:54:55.191Z,2.57
2023-02-25T15:56:31.812Z,2.59
2023-02-25T15:57:43.424Z,2.51
2023-02-25T15:58:56.312Z,2.42
2023-02-25T16:00:02.459Z,2.43
2023-02-25T16:01:42.853Z,2.44
2023-02-25T16:03:08.357Z,2.23
2023-02-25T16:04:52.579Z,2.08
2023-02-25T16:06:00.705Z,1.97
2023-02-25T16:07:15.127Z,1.75
2023-02-25T16:08:27.336Z,1.68